Time;durP1;ratioP1;P1;durP2;ratioP2;P2;SDS_P1;SDS_P2;PMS_P1;PMS_P2;Temp;Humidity;BMP_temperature;BMP_pressure;BME280_temperature;BME280_humidity;BME280_pressure;Samples;Min_cycle;Max_cycle;Signal;HPM_P1;HPM_P2
2022/06/10 00:00:50;;;;;;;4.51;2.46;;;;;;;;;;362942;146;859060;-63
2022/06/10 00:01:52;;;;;;;3.66;2.32;;;;;;;;;;363539;146;866448;-63
2022/06/10 00:02:53;;;;;;;6.20;2.61;;;;;;;;;;363910;147;857502;-64
2022/06/10 00:03:55;;;;;;;4.61;2.71;;;;;;;;;;360694;146;857399;-63
2022/06/10 00:04:56;;;;;;;3.54;2.41;;;;;;;;;;362167;147;857254;-63
2022/06/10 00:05:59;;;;;;;8.16;2.57;;;;;;;;;;361883;147;859487;-63
2022/06/10 00:07:01;;;;;;;5.03;2.62;;;;;;;;;;363472;146;866653;-63
2022/06/10 00:08:04;;;;;;;6.25;2.58;;;;;;;;;;360639;147;865746;-63
2022/06/10 00:09:06;;;;;;;6.88;2.70;;;;;;;;;;361025;146;864673;-63
2022/06/10 00:10:09;;;;;;;4.60;2.56;;;;;;;;;;364650;147;859062;-63
2022/06/10 00:11:11;;;;;;;3.93;2.22;;;;;;;;;;361348;147;857240;-63
2022/06/10 00:12:13;;;;;;;3.53;2.80;;;;;;;;;;360206;147;858627;-62
2022/06/10 00:13:15;;;;;;;4.49;2.51;;;;;;;;;;361295;147;857168;-62
2022/06/10 00:14:16;;;;;;;4.45;2.87;;;;;;;;;;363910;146;857248;-62
2022/06/10 00:15:18;;;;;;;5.91;2.76;;;;;;;;;;360850;146;858634;-62
2022/06/10 00:16:20;;;;;;;3.50;2.48;;;;;;;;;;360254;147;857442;-62
2022/06/10 00:17:21;;;;;;;4.04;2.70;;;;;;;;;;364534;146;858985;-62
2022/06/10 00:18:24;;;;;;;5.27;2.86;;;;;;;;;;364225;147;867340;-61
2022/06/10 00:19:25;;;;;;;3.76;2.55;;;;;;;;;;362341;147;857196;-62
2022/06/10 00:20:28;;;;;;;4.36;2.84;;;;;;;;;;362022;146;857274;-62
2022/06/10 00:21:29;;;;;;;4.91;3.13;;;;;;;;;;364571;146;866181;-62
2022/06/10 00:22:31;;;;;;;5.19;2.89;;;;;;;;;;364230;147;858441;-62
2022/06/10 00:23:32;;;;;;;4.72;2.95;;;;;;;;;;364449;147;864775;-62
2022/06/10 00:24:34;;;;;;;5.65;2.98;;;;;;;;;;363922;146;858013;-62
2022/06/10 00:25:36;;;;;;;5.67;3.04;;;;;;;;;;360788;147;857564;-62
2022/06/10 00:26:38;;;;;;;5.65;3.17;;;;;;;;;;366187;146;856744;-61
2022/06/10 00:27:39;;;;;;;4.45;3.35;;;;;;;;;;365002;147;857804;-61
2022/06/10 00:28:43;;;;;;;4.26;3.16;;;;;;;;;;360603;147;857477;-61
2022/06/10 00:29:45;;;;;;;9.76;3.34;;;;;;;;;;362947;147;857222;-64
2022/06/10 00:30:47;;;;;;;3.72;2.79;;;;;;;;;;362196;147;864910;-61
2022/06/10 00:31:48;;;;;;;5.11;3.14;;;;;;;;;;360365;146;859033;-61
2022/06/10 00:32:50;;;;;;;3.81;2.75;;;;;;;;;;363858;146;865489;-61
2022/06/10 00:33:52;;;;;;;5.26;3.23;;;;;;;;;;364781;146;865416;-61
2022/06/10 00:34:53;;;;;;;7.87;3.14;;;;;;;;;;365773;146;859042;-61
2022/06/10 00:35:55;;;;;;;4.26;3.19;;;;;;;;;;364038;147;858242;-62
2022/06/10 00:36:57;;;;;;;4.86;3.11;;;;;;;;;;363607;147;856435;-61
2022/06/10 00:37:58;;;;;;;5.90;3.09;;;;;;;;;;362308;147;857469;-61
2022/06/10 00:39:00;;;;;;;4.93;2.81;;;;;;;;;;361961;146;859121;-61
2022/06/10 00:40:02;;;;;;;6.63;3.15;;;;;;;;;;361944;147;858705;-61
2022/06/10 00:41:03;;;;;;;4.97;3.04;;;;;;;;;;364349;146;857367;-61
2022/06/10 00:42:05;;;;;;;4.31;2.88;;;;;;;;;;364770;147;866389;-62
2022/06/10 00:43:09;;;;;;;4.39;3.25;;;;;;;;;;363985;146;865833;-63
2022/06/10 00:44:29;;;;;;;5.87;3.19;;;;;;;;;;362948;147;857280;-63
2022/06/10 00:45:30;;;;;;;;;;;;;;;;;;366453;146;856508;-63
2022/06/10 00:46:34;;;;;;;9.10;3.44;;;;;;;;;;363265;147;857413;-61
2022/06/10 00:47:36;;;;;;;5.08;3.09;;;;;;;;;;360485;147;858795;-61
2022/06/10 00:48:55;;;;;;;6.81;3.46;;;;;;;;;;360046;147;857237;-61
2022/06/10 00:49:58;;;;;;;4.52;3.04;;;;;;;;;;363918;147;863567;-62
2022/06/10 00:51:03;;;;;;;5.44;2.73;;;;;;;;;;361511;146;857356;-62
2022/06/10 00:52:05;;;;;;;6.66;3.13;;;;;;;;;;363777;146;866159;-62
2022/06/10 00:53:06;;;;;;;5.68;2.79;;;;;;;;;;363053;147;857784;-62
2022/06/10 00:54:15;;;;;;;5.58;2.96;;;;;;;;;;364423;147;864698;-62
2022/06/10 00:55:17;;;;;;;5.95;3.23;;;;;;;;;;363221;146;866866;-62
2022/06/10 00:56:20;;;;;;;8.32;3.05;;;;;;;;;;363581;147;857577;-62
2022/06/10 00:57:23;;;;;;;4.52;3.22;;;;;;;;;;362058;147;856819;-62
2022/06/10 00:59:32;;;;;;;5.28;3.24;;;;;;;;;;365804;144;859076;-62
2022/06/10 01:00:36;;;;;;;4.03;3.13;;;;;;;;;;348529;147;857634;-62
2022/06/10 01:01:37;;;;;;;5.92;3.34;;;;;;;;;;365825;144;858164;-62
2022/06/10 01:02:40;;;;;;;4.69;2.95;;;;;;;;;;365691;144;865777;-62
2022/06/10 01:03:42;;;;;;;3.38;3.05;;;;;;;;;;366387;144;858847;-62
2022/06/10 01:04:43;;;;;;;3.26;2.74;;;;;;;;;;366147;144;857241;-62
2022/06/10 01:05:46;;;;;;;3.79;2.88;;;;;;;;;;366156;144;858710;-62
2022/06/10 01:06:48;;;;;;;4.21;3.42;;;;;;;;;;361527;147;859112;-62
2022/06/10 01:07:51;;;;;;;7.94;3.11;;;;;;;;;;358536;148;858973;-62
2022/06/10 01:08:53;;;;;;;4.47;2.84;;;;;;;;;;360965;147;858578;-62
2022/06/10 01:09:54;;;;;;;4.37;3.03;;;;;;;;;;356356;149;857911;-62
2022/06/10 01:11:16;;;;;;;4.92;3.45;;;;;;;;;;351502;151;859041;-62
2022/06/10 01:12:38;;;;;;;5.50;2.96;;;;;;;;;;357857;147;865766;-62
2022/06/10 01:13:44;;;;;;;4.09;3.32;;;;;;;;;;357273;148;860298;-62
2022/06/10 01:14:54;;;;;;;4.96;3.74;;;;;;;;;;358986;147;858976;-62
2022/06/10 01:15:58;;;;;;;4.57;2.88;;;;;;;;;;354998;148;857356;-62
2022/06/10 01:17:10;;;;;;;3.91;2.71;;;;;;;;;;356097;148;857368;-62
2022/06/10 01:18:17;;;;;;;3.33;2.99;;;;;;;;;;362269;147;867005;-62
2022/06/10 01:19:20;;;;;;;3.94;3.01;;;;;;;;;;359530;147;857554;-62
2022/06/10 01:20:31;;;;;;;5.52;3.24;;;;;;;;;;360633;147;857304;-62
2022/06/10 01:21:47;;;;;;;4.63;2.96;;;;;;;;;;362427;147;866470;-62
2022/06/10 01:23:07;;;;;;;5.08;3.04;;;;;;;;;;364183;147;858347;-62
2022/06/10 01:24:09;;;;;;;;;;;;;;;;;;363022;147;856425;-61
2022/06/10 01:25:30;;;;;;;7.21;2.97;;;;;;;;;;362777;147;857271;-61
2022/06/10 01:28:07;;;;;;;3.33;2.89;;;;;;;;;;358565;147;857935;-62
2022/06/10 01:29:20;;;;;;;3.79;2.76;;;;;;;;;;360180;147;857475;-61
2022/06/10 01:30:38;;;;;;;6.16;3.21;;;;;;;;;;362016;147;858772;-63
2022/06/10 01:31:42;;;;;;;4.23;2.77;;;;;;;;;;360241;147;859035;-63
2022/06/10 01:32:45;;;;;;;3.34;2.69;;;;;;;;;;360330;147;857722;-63
2022/06/10 01:33:52;;;;;;;4.84;2.74;;;;;;;;;;363310;147;859364;-63
2022/06/10 01:34:55;;;;;;;5.84;3.43;;;;;;;;;;358485;147;857436;-63
2022/06/10 01:36:05;;;;;;;5.06;3.11;;;;;;;;;;361616;147;857345;-63
2022/06/10 01:37:11;;;;;;;5.75;3.51;;;;;;;;;;361327;147;857260;-64
2022/06/10 01:38:26;;;;;;;4.60;3.12;;;;;;;;;;360834;147;857292;-63
2022/06/10 01:39:33;;;;;;;4.57;3.18;;;;;;;;;;359794;147;859061;-63
2022/06/10 01:40:36;;;;;;;3.84;2.89;;;;;;;;;;362266;147;859936;-63
2022/06/10 01:41:40;;;;;;;4.02;2.98;;;;;;;;;;362365;147;858955;-63
2022/06/10 01:42:52;;;;;;;5.37;2.97;;;;;;;;;;359863;147;857434;-63
2022/06/10 01:43:56;;;;;;;6.23;3.31;;;;;;;;;;350087;150;857784;-62
2022/06/10 01:45:09;;;;;;;3.41;2.99;;;;;;;;;;360876;147;857392;-62
2022/06/10 01:46:25;;;;;;;4.98;3.24;;;;;;;;;;354812;150;857114;-62
2022/06/10 01:47:24;;;;;;;3.45;3.15;;;;;;;;;;352911;148;857895;-62
2022/06/10 01:48:36;;;;;;;6.79;3.39;;;;;;;;;;362023;147;859183;-62
2022/06/10 01:49:39;;;;;;;4.16;3.23;;;;;;;;;;356388;148;858485;-63
2022/06/10 01:50:43;;;;;;;4.78;3.25;;;;;;;;;;352328;148;858168;-63
2022/06/10 01:52:05;;;;;;;5.08;3.21;;;;;;;;;;359868;137;859669;-63
2022/06/10 01:53:23;;;;;;;7.75;3.00;;;;;;;;;;350537;152;857457;-63
2022/06/10 01:54:33;;;;;;;3.84;3.21;;;;;;;;;;346340;153;857361;-62
2022/06/10 01:55:55;;;;;;;5.49;3.17;;;;;;;;;;344935;153;857287;-62
2022/06/10 01:56:57;;;;;;;6.14;3.08;;;;;;;;;;349630;153;857494;-62
2022/06/10 01:58:03;;;;;;;3.25;2.92;;;;;;;;;;348755;153;857329;-62
2022/06/10 01:59:25;;;;;;;5.43;3.07;;;;;;;;;;346106;153;857333;-63
2022/06/10 02:00:28;;;;;;;5.49;2.96;;;;;;;;;;346386;153;859116;-63
2022/06/10 02:01:32;;;;;;;5.50;3.23;;;;;;;;;;349420;153;857292;-63
2022/06/10 02:02:35;;;;;;;5.11;3.58;;;;;;;;;;346138;153;858462;-63
2022/06/10 03:17:57;;;;;;;7.97;3.32;;;;;;;16.82;62.17;99598.63;371596;143;869940;-57
2022/06/10 03:19:06;;;;;;;5.64;3.44;;;;;;;16.93;61.54;99603.41;364603;145;859526;-58
2022/06/10 03:20:12;;;;;;;6.13;3.19;;;;;;;17.23;60.90;99595.28;369919;143;856528;-58
2022/06/10 03:21:27;;;;;;;4.35;3.25;;;;;;;17.44;60.42;99595.30;369983;143;856298;-59
2022/06/10 03:22:38;;;;;;;6.00;3.22;;;;;;;17.58;59.91;99595.57;374042;142;856192;-59
2022/06/10 03:23:47;;;;;;;4.33;3.26;;;;;;;17.76;59.58;99599.17;372475;143;857149;-58
2022/06/10 03:25:10;;;;;;;5.14;3.59;;;;;;;17.97;59.31;99599.14;371107;143;857895;-54
2022/06/10 03:26:22;;;;;;;5.51;3.18;;;;;;;18.16;59.17;99593.11;372665;143;857738;-57
2022/06/10 03:27:34;;;;;;;7.71;3.33;;;;;;;18.33;58.33;99601.05;373419;141;856367;-59
2022/06/10 03:28:58;;;;;;;6.37;3.61;;;;;;;18.43;58.41;99591.02;372921;141;856863;-59
2022/06/10 03:30:09;;;;;;;4.76;3.54;;;;;;;18.53;58.56;99594.91;369301;141;857288;-59
2022/06/10 03:31:19;;;;;;;7.39;4.07;;;;;;;18.62;58.05;99595.39;372152;141;857684;-60
2022/06/10 03:32:25;;;;;;;5.68;3.59;;;;;;;18.66;57.92;99596.95;369621;141;858828;-61
2022/06/10 03:33:34;;;;;;;6.78;3.63;;;;;;;18.69;57.83;99588.94;362010;144;863693;-57
2022/06/10 03:34:45;;;;;;;11.83;4.46;;;;;;;18.71;57.95;99594.95;367828;143;856438;-57
2022/06/10 03:35:54;;;;;;;;;;;;;;;18.76;58.03;99600.83;361539;147;856526;-57
2022/06/10 03:36:58;;;;;;;8.84;4.19;;;;;;;18.82;57.60;99597.91;360369;144;857352;-56
2022/06/10 03:38:04;;;;;;;9.45;4.87;;;;;;;18.90;57.68;99591.45;365948;144;864759;-54
2022/06/10 03:39:08;;;;;;;14.27;4.73;;;;;;;18.97;57.46;99592.88;371609;143;857787;-54
2022/06/10 03:40:20;;;;;;;12.76;5.28;;;;;;;19.04;57.55;99590.83;374409;141;857578;-56
2022/06/10 03:41:29;;;;;;;8.12;4.21;;;;;;;19.14;56.88;99588.61;372431;142;857887;-62
2022/06/10 03:42:33;;;;;;;8.31;3.97;;;;;;;19.22;56.57;99599.58;360497;147;857213;-55
2022/06/10 03:43:38;;;;;;;5.67;3.69;;;;;;;19.26;55.90;99598.50;356638;145;858733;-59
2022/06/10 03:44:41;;;;;;;6.09;3.44;;;;;;;19.28;55.78;99591.40;363776;144;856123;-56
2022/06/10 03:45:45;;;;;;;4.13;3.63;;;;;;;19.32;55.79;99597.33;369348;144;858797;-60
2022/06/10 03:46:49;;;;;;;4.27;3.44;;;;;;;19.33;55.84;99601.65;361312;147;858357;-63
2022/06/10 03:47:53;;;;;;;4.14;3.49;;;;;;;19.33;55.74;99597.27;358600;147;857336;-63
2022/06/10 03:48:57;;;;;;;6.67;3.98;;;;;;;19.36;55.94;99588.38;360998;146;857410;-58
2022/06/10 03:50:06;;;;;;;4.84;3.49;;;;;;;19.32;56.55;99597.33;362785;142;857476;-60
2022/06/10 03:51:11;;;;;;;4.45;3.34;;;;;;;19.36;56.91;99591.86;374915;141;857301;-60
2022/06/10 03:52:19;;;;;;;5.52;3.82;;;;;;;19.38;56.98;99583.89;378530;141;856307;-58
2022/06/10 03:53:23;;;;;;;5.44;3.38;;;;;;;19.42;57.08;99582.81;375908;141;857202;-58
2022/06/10 03:54:26;;;;;;;6.39;3.63;;;;;;;;;;376691;141;857295;-58
2022/06/10 03:55:28;;;;;;;5.95;3.52;;;;;;;;;;361585;147;864772;-59
2022/06/10 03:56:35;;;;;;;5.51;3.73;;;;;;;;;;360601;144;866388;-58
2022/06/10 03:57:36;;;;;;;6.44;3.98;;;;;;;;;;366609;144;857901;-57
2022/06/10 03:58:38;;;;;;;7.39;3.68;;;;;;;;;;365631;144;857642;-58
2022/06/10 03:59:41;;;;;;;5.91;3.92;;;;;;;;;;372817;142;859523;-58
2022/06/10 04:00:44;;;;;;;4.42;3.34;;;;;;;;;;379242;141;864754;-58
2022/06/10 04:01:45;;;;;;;5.33;3.96;;;;;;;;;;376200;141;865903;-59
2022/06/10 04:02:49;;;;;;;4.33;3.53;;;;;;;;;;375338;141;865681;-59
2022/06/10 04:03:52;;;;;;;5.64;3.81;;;;;;;;;;366926;144;866623;-59
2022/06/10 04:04:55;;;;;;;5.78;3.68;;;;;;;;;;353157;149;857365;-55
2022/06/10 04:05:57;;;;;;;8.38;3.64;;;;;;;;;;358514;141;857427;-57
2022/06/10 04:06:59;;;;;;;4.95;3.57;;;;;;;;;;376363;141;863897;-58
2022/06/10 04:08:03;;;;;;;5.23;3.41;;;;;;;;;;375931;141;857950;-55
2022/06/10 04:09:07;;;;;;;5.66;3.48;;;;;;;;;;369790;144;864912;-56
2022/06/10 04:10:12;;;;;;;5.98;3.48;;;;;;;;;;372799;141;858488;-55
2022/06/10 04:11:15;;;;;;;4.56;3.45;;;;;;;;;;367663;144;866593;-56
2022/06/10 04:12:17;;;;;;;4.71;3.46;;;;;;;;;;360410;148;864914;-55
2022/06/10 04:13:21;;;;;;;5.60;3.66;;;;;;;;;;364797;144;865945;-57
2022/06/10 04:14:25;;;;;;;6.84;3.58;;;;;;;;;;366305;145;859690;-56
2022/06/10 04:15:27;;;;;;;10.39;3.59;;;;;;;;;;357958;143;865850;-55
2022/06/10 04:16:30;;;;;;;7.12;3.18;;;;;;;;;;368160;143;857266;-55
2022/06/10 04:17:34;;;;;;;7.41;3.37;;;;;;;;;;364573;145;868421;-56
2022/06/10 04:18:37;;;;;;;6.34;3.42;;;;;;;;;;349538;149;857398;-55
2022/06/10 04:19:39;;;;;;;12.41;3.67;;;;;;;;;;350656;146;857095;-56
2022/06/10 04:20:41;;;;;;;9.99;3.52;;;;;;;;;;368725;143;857395;-55
2022/06/10 04:27:18;;;;;;;8.21;3.09;;;;;;;21.82;48.25;99599.60;371120;145;869319;-58
2022/06/10 04:28:19;;;;;;;8.05;2.89;;;;;;;21.81;47.67;99609.31;363306;147;858237;-57
2022/06/10 04:29:21;;;;;;;3.49;2.71;;;;;;;21.89;47.23;99608.83;373731;142;856463;-60
2022/06/10 04:30:26;;;;;;;7.28;2.96;;;;;;;21.96;47.02;99602.24;373394;144;863534;-59
2022/06/10 04:31:28;;;;;;;6.64;3.24;;;;;;;22.02;46.97;99607.14;372997;144;864119;-60
2022/06/10 04:32:30;;;;;;;10.14;3.26;;;;;;;22.09;47.39;99607.63;372730;144;856817;-62
2022/06/10 04:33:33;;;;;;;5.66;3.49;;;;;;;22.16;47.75;99608.94;366960;144;863603;-63
2022/06/10 04:34:36;;;;;;;5.26;3.33;;;;;;;22.23;47.56;99609.39;371739;144;863612;-57
2022/06/10 04:35:39;;;;;;;5.34;3.13;;;;;;;22.26;46.81;99616.27;373119;144;856122;-62
2022/06/10 04:36:41;;;;;;;4.58;3.36;;;;;;;22.30;46.64;99608.09;368505;144;864642;-60
2022/06/10 04:37:45;;;;;;;8.28;3.90;;;;;;;22.32;46.74;99616.75;372618;144;856212;-58
2022/06/10 04:38:46;;;;;;;7.56;3.42;;;;;;;22.36;46.72;99616.56;369970;144;856300;-59
2022/06/10 04:39:48;;;;;;;5.01;3.43;;;;;;;22.41;46.94;99617.12;371960;144;856251;-56
2022/06/10 04:40:50;;;;;;;5.64;3.59;;;;;;;22.44;46.74;99619.56;372465;144;856365;-56
2022/06/10 04:41:53;;;;;;;7.46;3.79;;;;;;;22.50;46.98;99624.48;371814;144;863624;-56
2022/06/10 04:42:55;;;;;;;11.29;3.54;;;;;;;22.52;46.81;99613.82;371812;144;857138;-56
2022/06/10 04:43:57;;;;;;;7.35;3.95;;;;;;;22.55;46.89;99622.41;370555;144;856975;-57
2022/06/10 04:44:59;;;;;;;11.80;4.21;;;;;;;22.59;46.84;99615.98;372105;144;856465;-55
2022/06/10 04:46:01;;;;;;;6.79;3.57;;;;;;;22.64;46.75;99618.31;369162;144;863938;-55
2022/06/10 04:47:04;;;;;;;6.45;3.73;;;;;;;22.68;46.34;99625.09;368058;143;856433;-56
2022/06/10 04:48:06;;;;;;;4.22;3.41;;;;;;;22.72;46.77;99621.31;370908;143;856419;-55
2022/06/10 04:49:08;;;;;;;8.09;3.89;;;;;;;22.78;46.83;99624.50;365035;143;856248;-55
2022/06/10 04:50:11;;;;;;;7.52;3.24;;;;;;;22.84;46.98;99651.36;365084;145;857358;-56
2022/06/10 04:51:12;;;;;;;8.82;3.51;;;;;;;;;;366025;145;856378;-57
2022/06/10 04:52:15;;;;;;;5.49;3.64;;;;;;;;;;362865;144;859056;-56
2022/06/10 04:53:16;;;;;;;8.85;3.49;;;;;;;;;;362427;147;857198;-55
2022/06/10 04:54:18;;;;;;;8.42;3.73;;;;;;;;;;366126;144;857334;-55
2022/06/10 04:55:19;;;;;;;4.83;3.35;;;;;;;;;;366359;143;859216;-56
2022/06/10 04:56:21;;;;;;;5.03;3.18;;;;;;;;;;368718;143;858886;-55
2022/06/10 04:57:23;;;;;;;5.91;3.61;;;;;;;;;;368621;144;866523;-57
2022/06/10 04:58:24;;;;;;;4.53;2.87;;;;;;;;;;367136;143;859362;-56
2022/06/10 04:59:26;;;;;;;10.30;3.29;;;;;;;;;;369515;143;857241;-57
2022/06/10 05:00:29;;;;;;;6.24;3.36;;;;;;;;;;368960;143;864905;-55
2022/06/10 05:01:33;;;;;;;5.78;3.69;;;;;;;;;;367607;145;859089;-57
2022/06/10 05:02:34;;;;;;;11.28;3.54;;;;;;;;;;365141;144;859119;-55
2022/06/10 05:03:36;;;;;;;8.56;3.19;;;;;;;;;;363151;147;864680;-55
2022/06/10 05:04:38;;;;;;;8.28;3.49;;;;;;;;;;368678;145;856454;-55
2022/06/10 05:05:39;;;;;;;9.51;3.17;;;;;;;;;;368108;144;864733;-55
2022/06/10 05:06:41;;;;;;;10.84;3.35;;;;;;;;;;368032;144;857361;-55
2022/06/10 05:07:42;;;;;;;8.86;3.08;;;;;;;;;;365473;145;866987;-55
2022/06/10 05:08:44;;;;;;;7.76;3.06;;;;;;;;;;368232;144;857898;-55
2022/06/10 05:09:45;;;;;;;8.71;2.82;;;;;;;;;;365548;145;857294;-55
2022/06/10 05:10:47;;;;;;;12.09;3.00;;;;;;;;;;365610;143;858339;-55
2022/06/10 05:11:49;;;;;;;7.63;2.97;;;;;;;;;;366064;145;864868;-55
2022/06/10 05:12:50;;;;;;;6.71;3.23;;;;;;;;;;364258;145;856382;-56
2022/06/10 05:13:52;;;;;;;9.82;3.31;;;;;;;;;;367092;145;857081;-55
2022/06/10 05:14:53;;;;;;;6.91;3.26;;;;;;;;;;366396;145;856896;-56
2022/06/10 05:15:55;;;;;;;9.26;3.34;;;;;;;;;;369000;145;856639;-56
2022/06/10 05:16:57;;;;;;;9.25;3.00;;;;;;;;;;367208;145;856685;-56
2022/06/10 05:17:59;;;;;;;7.00;3.58;;;;;;;;;;369493;145;856681;-56
2022/06/10 05:19:01;;;;;;;5.28;2.95;;;;;;;;;;364825;145;856416;-56
2022/06/10 05:20:03;;;;;;;8.94;3.35;;;;;;;;;;364400;145;863708;-56
2022/06/10 05:21:04;;;;;;;6.57;3.06;;;;;;;;;;364802;145;856734;-56
2022/06/10 05:22:07;;;;;;;7.38;3.37;;;;;;;;;;364147;145;856393;-56
2022/06/10 05:23:08;;;;;;;8.70;3.73;;;;;;;;;;368314;145;856891;-56
2022/06/10 05:24:10;;;;;;;10.94;3.94;;;;;;;;;;364652;145;856408;-56
2022/06/10 05:25:12;;;;;;;10.02;3.27;;;;;;;;;;368025;145;856231;-56
2022/06/10 05:26:14;;;;;;;11.36;3.33;;;;;;;;;;364794;145;856368;-55
2022/06/10 05:27:15;;;;;;;7.45;3.20;;;;;;;;;;366356;145;864196;-56
2022/06/10 05:28:17;;;;;;;5.91;3.54;;;;;;;;;;369342;145;866395;-56
2022/06/10 05:29:18;;;;;;;6.11;3.03;;;;;;;;;;369198;145;857241;-56
2022/06/10 05:30:21;;;;;;;8.36;3.17;;;;;;;;;;369259;145;866597;-55
2022/06/10 05:31:22;;;;;;;7.06;3.20;;;;;;;;;;367559;145;865828;-57
2022/06/10 05:32:24;;;;;;;8.43;3.24;;;;;;;;;;369145;145;858460;-55
2022/06/10 05:34:44;;;;;;;10.80;3.43;;;;;;;;;;368156;145;857316;-56
2022/06/10 05:34:44;;;;;;;4.86;3.04;;;;;;;;;;362986;145;857354;-55
2022/06/10 05:35:46;;;;;;;8.92;3.24;;;;;;;;;;367617;144;859193;-54
2022/06/10 05:36:47;;;;;;;10.99;3.17;;;;;;;;;;365263;144;859069;-54
2022/06/10 05:37:49;;;;;;;6.42;3.21;;;;;;;;;;365413;145;864739;-54
2022/06/10 05:38:51;;;;;;;6.21;3.07;;;;;;;;;;366595;145;857419;-56
2022/06/10 05:39:53;;;;;;;8.31;3.38;;;;;;;;;;366364;145;858910;-57
2022/06/10 05:42:04;;;;;;;9.95;3.62;;;;;;;;;;365880;145;858728;-56
2022/06/10 05:42:05;;;;;;;9.12;3.44;;;;;;;;;;362313;147;857368;-56
2022/06/10 05:43:06;;;;;;;7.08;3.24;;;;;;;;;;366714;144;857347;-55
2022/06/10 05:44:09;;;;;;;4.05;3.25;;;;;;;;;;364105;145;858074;-55
2022/06/10 05:45:13;;;;;;;10.67;3.93;;;;;;;;;;368003;145;858275;-55
2022/06/10 05:46:15;;;;;;;6.19;3.38;;;;;;;;;;367076;145;857498;-55
2022/06/10 05:47:19;;;;;;;4.37;3.16;;;;;;;;;;366719;144;857306;-56
2022/06/10 05:48:20;;;;;;;7.58;3.54;;;;;;;;;;364982;145;864767;-56
2022/06/10 05:49:22;;;;;;;7.35;3.61;;;;;;;;;;367659;145;858765;-54
2022/06/10 05:50:25;;;;;;;10.29;3.66;;;;;;;;;;369477;145;857343;-55
2022/06/10 05:51:27;;;;;;;10.51;3.60;;;;;;;;;;369518;144;865452;-55
2022/06/10 05:52:29;;;;;;;7.93;3.84;;;;;;;;;;369171;145;859248;-54
2022/06/10 05:53:31;;;;;;;12.45;3.67;;;;;;;;;;366984;145;857367;-56
2022/06/10 05:54:33;;;;;;;14.01;4.02;;;;;;;;;;366922;145;857335;-55
2022/06/10 05:55:35;;;;;;;9.41;3.86;;;;;;;;;;368068;145;858659;-55
2022/06/10 05:56:37;;;;;;;10.01;3.48;;;;;;;;;;369341;145;856292;-55
2022/06/10 05:57:38;;;;;;;7.62;3.76;;;;;;;;;;367362;144;865588;-55
2022/06/10 05:58:40;;;;;;;9.07;3.63;;;;;;;;;;358549;147;858453;-55
2022/06/10 05:59:42;;;;;;;5.96;3.29;;;;;;;;;;358443;150;857242;-55
2022/06/10 06:00:43;;;;;;;7.96;3.39;;;;;;;;;;357385;150;857362;-55
2022/06/10 06:01:45;;;;;;;11.48;4.24;;;;;;;;;;358492;147;865538;-55
2022/06/10 06:02:47;;;;;;;11.40;3.51;;;;;;;;;;357279;150;864985;-54
2022/06/10 06:03:48;;;;;;;8.54;3.50;;;;;;;;;;358621;149;864995;-54
2022/06/10 06:04:50;;;;;;;5.13;3.51;;;;;;;;;;359049;148;859833;-55
2022/06/10 06:05:52;;;;;;;8.75;3.79;;;;;;;;;;354300;148;858913;-54
2022/06/10 06:06:54;;;;;;;8.98;3.69;;;;;;;;;;350207;149;857484;-54
2022/06/10 06:07:55;;;;;;;10.49;3.49;;;;;;;;;;349356;154;863885;-55
2022/06/10 06:08:57;;;;;;;7.20;3.71;;;;;;;;;;354690;148;865604;-54
2022/06/10 06:09:59;;;;;;;5.76;3.44;;;;;;;;;;355543;151;857516;-54
2022/06/10 06:11:01;;;;;;;9.35;4.02;;;;;;;;;;355645;150;856604;-53
2022/06/10 06:12:03;;;;;;;9.57;3.77;;;;;;;;;;354799;151;863983;-55
2022/06/10 06:13:04;;;;;;;9.75;3.79;;;;;;;;;;352165;148;857420;-54
2022/06/10 06:14:06;;;;;;;6.01;4.11;;;;;;;;;;350753;151;857274;-54
2022/06/10 06:15:08;;;;;;;5.96;3.83;;;;;;;;;;352366;151;857808;-54
2022/06/10 06:16:14;;;;;;;13.74;3.43;;;;;;;;;;352422;151;866355;-53
2022/06/10 06:17:16;;;;;;;10.20;3.81;;;;;;;;;;353742;151;859237;-55
2022/06/10 06:18:18;;;;;;;11.66;3.51;;;;;;;;;;355413;148;857346;-54
2022/06/10 06:19:19;;;;;;;6.46;3.61;;;;;;;;;;351850;148;865445;-54
2022/06/10 06:20:21;;;;;;;8.22;3.82;;;;;;;;;;352093;149;857350;-54
2022/06/10 06:21:23;;;;;;;12.53;4.56;;;;;;;;;;354231;148;864896;-55
2022/06/10 06:22:25;;;;;;;11.09;3.70;;;;;;;;;;353738;149;857244;-55
2022/06/10 06:23:26;;;;;;;13.29;4.36;;;;;;;;;;353198;148;858235;-54
2022/06/10 06:24:28;;;;;;;19.72;4.17;;;;;;;;;;353733;149;857074;-55
2022/06/10 06:25:30;;;;;;;10.13;3.53;;;;;;;;;;353802;148;857348;-57
2022/06/10 06:26:32;;;;;;;9.87;3.41;;;;;;;;;;353683;148;858807;-54
2022/06/10 06:27:33;;;;;;;8.36;3.58;;;;;;;;;;353527;151;865243;-55
2022/06/10 06:28:39;;;;;;;12.56;3.74;;;;;;;;;;353652;148;859263;-54
2022/06/10 06:29:42;;;;;;;8.83;3.43;;;;;;;;;;347942;152;858514;-56
2022/06/10 06:30:44;;;;;;;12.39;3.29;;;;;;;;;;348767;151;858705;-56
2022/06/10 06:31:45;;;;;;;21.84;4.16;;;;;;;;;;354300;151;857360;-54
2022/06/10 06:32:49;;;;;;;8.71;3.16;;;;;;;;;;353510;151;858249;-56
2022/06/10 06:33:51;;;;;;;8.91;2.79;;;;;;;;;;354631;151;865647;-56
2022/06/10 06:34:53;;;;;;;6.60;2.87;;;;;;;;;;354620;151;857448;-56
2022/06/10 06:35:54;;;;;;;8.54;3.05;;;;;;;;;;356000;148;858548;-54
2022/06/10 06:36:56;;;;;;;6.71;2.83;;;;;;;;;;350478;151;864883;-56
2022/06/10 06:37:57;;;;;;;7.20;3.26;;;;;;;;;;353605;148;858825;-55
2022/06/10 06:39:00;;;;;;;9.01;2.91;;;;;;;;;;351610;150;859180;-55
2022/06/10 06:40:03;;;;;;;4.50;2.85;;;;;;;;;;348410;151;857445;-57
2022/06/10 06:41:06;;;;;;;7.53;3.40;;;;;;;;;;348951;151;857380;-56
2022/06/10 06:42:09;;;;;;;3.44;2.58;;;;;;;;;;352675;151;857362;-55
2022/06/10 06:43:11;;;;;;;9.73;3.20;;;;;;;;;;353587;150;857296;-55
2022/06/10 06:44:12;;;;;;;8.21;2.91;;;;;;;;;;352757;148;865303;-56
2022/06/10 06:45:14;;;;;;;5.57;2.90;;;;;;;;;;354605;151;858094;-56
2022/06/10 06:46:18;;;;;;;7.74;3.16;;;;;;;;;;354747;148;864915;-56
2022/06/10 06:47:19;;;;;;;10.07;2.93;;;;;;;;;;353770;150;857416;-58
2022/06/10 06:48:21;;;;;;;11.94;3.71;;;;;;;26.30;100.00;151885.22;353502;149;858038;-57
2022/06/10 06:49:25;;;;;;;6.83;2.94;;;;;;;;;;354294;149;856493;-59
2022/06/10 06:50:28;;;;;;;8.16;3.00;;;;;;;;;;353110;151;865006;-56
2022/06/10 06:51:29;;;;;;;6.20;3.43;;;;;;;;;;353219;150;857424;-55
2022/06/10 06:52:31;;;;;;;7.79;3.10;;;;;;;;;;352863;151;857362;-57
2022/06/10 06:53:35;;;;;;;10.99;3.14;;;;;;;;;;352442;150;857951;-57
2022/06/10 06:54:37;;;;;;;7.18;3.01;;;;;;;;;;350943;148;857306;-58
2022/06/10 06:55:39;;;;;;;8.07;3.03;;;;;;;;;;353706;148;857454;-55
2022/06/10 06:56:40;;;;;;;13.21;3.25;;;;;;;;;;357463;148;858918;-56
2022/06/10 06:57:44;;;;;;;7.50;2.64;;;;;;;;;;352797;148;864866;-57
2022/06/10 06:58:45;;;;;;;5.16;2.71;;;;;;;;;;350466;151;857141;-56
2022/06/10 06:59:47;;;;;;;8.13;3.04;;;;;;;;;;346341;154;857863;-56
2022/06/10 07:00:49;;;;;;;8.84;3.27;;;;;;;;;;347873;154;857396;-56
2022/06/10 07:01:50;;;;;;;7.17;3.34;;;;;;;;;;346917;152;864756;-57
2022/06/10 07:02:52;;;;;;;6.92;3.14;;;;;;;;;;343147;154;866297;-56
2022/06/10 07:03:53;;;;;;;7.24;3.04;;;;;;;;;;343686;153;858854;-57
2022/06/10 07:04:55;;;;;;;9.11;3.12;;;;;;;;;;365104;142;857473;-56
2022/06/10 07:05:57;;;;;;;6.14;3.09;;;;;;;;;;361554;144;859176;-54
2022/06/10 07:06:59;;;;;;;4.93;2.47;;;;;;;;;;364355;144;858666;-55
2022/06/10 07:08:01;;;;;;;5.47;3.16;;;;;;;;;;363307;145;856684;-56
2022/06/10 07:09:03;;;;;;;7.15;3.12;;;;;;;;;;364747;145;863924;-56
2022/06/10 07:10:06;;;;;;;8.78;3.48;;;;;;;;;;369199;144;859047;-59
2022/06/10 07:11:08;;;;;;;5.54;3.21;;;;;;;;;;362654;144;857255;-58
2022/06/10 07:12:10;;;;;;;5.75;2.99;;;;;;;;;;363548;145;857305;-60
2022/06/10 07:13:12;;;;;;;9.79;3.06;;;;;;;;;;364764;144;866361;-60
2022/06/10 07:14:14;;;;;;;5.44;3.07;;;;;;;;;;364478;145;864757;-60
2022/06/10 07:15:15;;;;;;;6.09;3.50;;;;;;;;;;362717;146;859107;-57
2022/06/10 07:16:19;;;;;;;10.13;3.19;;;;;;;;;;362041;145;864741;-59
2022/06/10 07:17:20;;;;;;;9.19;3.33;;;;;;;;;;367477;144;859126;-59
2022/06/10 07:18:22;;;;;;;9.59;3.12;;;;;;;;;;366554;143;857402;-59
2022/06/10 07:19:24;;;;;;;7.74;3.58;;;;;;;;;;364091;145;859133;-60
2022/06/10 07:20:27;;;;;;;13.31;3.71;;;;;;;;;;362303;145;866004;-60
2022/06/10 07:21:30;;;;;;;7.34;3.40;;;;;;;;;;369104;145;864966;-59
2022/06/10 07:22:31;;;;;;;7.96;3.15;;;;;;;;;;361272;147;857323;-59
2022/06/10 07:23:33;;;;;;;8.94;3.39;;;;;;;;;;365555;143;857476;-58